Time;durP1;ratioP1;P1;durP2;ratioP2;P2;SDS_P1;SDS_P2;PMS_P1;PMS_P2;Temp;Humidity;BMP_temperature;BMP_pressure;BME280_temperature;BME280_humidity;BME280_pressure;Samples;Min_cycle;Max_cycle;Signal;HPM_P1;HPM_P2
2021/01/27 00:00:06;;;;;;;8.10;4.20;;;2.90;65.80;;;1.71;62.35;98696.06;5075613;28;20961;-78
2021/01/27 00:02:34;;;;;;;7.43;4.60;;;3.00;66.10;;;1.67;62.55;98697.34;5078397;28;20501;-77
2021/01/27 00:05:00;;;;;;;7.78;4.82;;;3.00;66.10;;;1.62;62.93;98697.84;5075289;28;20506;-78
2021/01/27 00:07:27;;;;;;;6.65;4.25;;;2.90;66.30;;;1.61;62.70;98693.59;5077262;28;20407;-77
2021/01/27 00:09:53;;;;;;;7.70;4.35;;;2.90;67.20;;;1.66;62.97;98699.13;5074797;28;20812;-76
2021/01/27 00:12:20;;;;;;;7.07;4.60;;;2.90;66.50;;;1.62;62.95;98703.06;5057635;28;20430;-77
2021/01/27 00:14:46;;;;;;;9.35;4.60;;;2.90;66.40;;;1.56;63.30;98703.72;5076284;28;20957;-76
2021/01/27 00:17:12;;;;;;;7.68;4.50;;;2.90;66.30;;;1.60;62.87;98691.13;5079397;28;20418;-77
2021/01/27 00:19:38;;;;;;;11.88;5.10;;;2.90;66.50;;;1.63;63.22;98693.44;5078561;28;20468;-78
2021/01/27 00:22:04;;;;;;;9.18;4.78;;;2.90;66.60;;;1.60;63.03;98689.34;5077726;28;20453;-77
2021/01/27 00:24:30;;;;;;;7.70;4.65;;;2.90;66.50;;;1.65;62.85;98681.06;5077443;28;20411;-77
2021/01/27 00:26:56;;;;;;;12.38;4.93;;;2.90;66.60;;;1.80;62.65;98687.25;5087555;28;20404;-77
2021/01/27 00:29:25;;;;;;;7.90;4.50;;;3.00;66.50;;;1.83;62.59;98671.25;5091088;28;20501;-77
2021/01/27 00:31:51;;;;;;;7.77;4.73;;;3.10;66.10;;;1.87;62.37;98664.75;5090082;28;20465;-76
2021/01/27 00:34:20;;;;;;;6.75;4.53;;;3.10;66.10;;;2.03;61.30;98662.09;5080316;28;20961;-77
2021/01/27 00:36:47;;;;;;;8.10;4.60;;;3.20;65.70;;;1.99;61.68;98657.38;5074750;28;20826;-77
2021/01/27 00:39:13;;;;;;;8.38;4.53;;;3.20;65.40;;;1.91;62.13;98666.84;5065581;28;20419;-77
2021/01/27 00:41:40;;;;;;;7.15;4.60;;;3.10;65.40;;;1.81;62.32;98671.41;5084483;28;20674;-77
2021/01/27 00:44:06;;;;;;;8.55;4.85;;;3.10;65.70;;;1.75;62.24;98664.22;5085626;28;20415;-77
2021/01/27 00:46:33;;;;;;;6.80;4.27;;;3.00;65.50;;;1.90;61.47;98667.00;5078263;28;20412;-77
2021/01/27 00:49:00;;;;;;;8.15;4.43;;;3.00;65.40;;;1.93;61.06;98656.25;5081187;28;20502;-78
2021/01/27 00:51:27;;;;;;;7.97;4.10;;;3.10;64.80;;;1.99;60.80;98657.38;5080618;28;20411;-77
2021/01/27 00:53:53;;;;;;;7.55;4.90;;;3.20;64.70;;;1.93;61.61;98649.22;5093586;28;20458;-77
2021/01/27 00:56:21;;;;;;;9.47;5.00;;;3.20;64.90;;;1.78;62.06;98642.22;5090270;28;20411;-77
2021/01/27 00:58:47;;;;;;;8.98;4.88;;;3.10;65.30;;;1.71;62.20;98639.47;5096159;28;20408;-76
2021/01/27 01:01:14;;;;;;;8.55;5.65;;;3.00;65.80;;;1.64;62.94;98630.66;5063174;28;20419;-77
2021/01/27 01:03:41;;;;;;;8.35;5.00;;;3.00;66.20;;;1.60;63.26;98629.31;5081095;28;20737;-77
2021/01/27 01:06:07;;;;;;;13.73;5.90;;;2.90;66.60;;;1.61;63.37;98624.94;5079783;28;20856;-77
2021/01/27 01:08:33;;;;;;;9.48;4.90;;;2.90;66.90;;;1.63;63.73;98625.59;5077798;28;20407;-77
2021/01/27 01:11:00;;;;;;;8.23;5.30;;;2.90;66.80;;;1.62;63.49;98640.44;5079073;28;20449;-76
2021/01/27 01:13:30;;;;;;;13.43;5.68;;;2.90;67.00;;;1.65;63.80;98634.06;5077798;28;20471;-77
2021/01/27 01:15:56;;;;;;;8.15;5.13;;;2.90;67.20;;;1.62;63.69;98634.38;5077728;28;20793;-77
2021/01/27 01:18:23;;;;;;;9.40;5.47;;;2.90;67.20;;;1.66;64.00;98625.25;5078088;28;20404;-77
2021/01/27 01:20:51;;;;;;;8.57;5.50;;;2.90;67.30;;;1.70;63.76;98630.00;5078890;28;20428;-77
2021/01/27 01:23:20;;;;;;;12.15;5.90;;;3.00;67.20;;;1.64;63.94;98622.81;5060362;28;20835;-77
2021/01/27 01:25:47;;;;;;;9.38;5.70;;;2.90;67.30;;;1.66;63.80;98633.06;5079042;28;20403;-77
2021/01/27 01:28:14;;;;;;;11.68;6.60;;;2.90;67.40;;;1.68;63.74;98631.94;5079096;28;20498;-77
2021/01/27 01:30:43;;;;;;;8.57;5.93;;;3.00;67.40;;;1.71;64.33;98623.78;5079002;28;20403;-77
2021/01/27 01:33:12;;;;;;;8.70;5.90;;;3.00;67.40;;;1.68;64.01;98623.28;5080332;28;20453;-77
2021/01/27 01:35:38;;;;;;;10.70;6.35;;;3.00;67.40;;;1.65;64.25;98605.38;5081394;28;20464;-77
2021/01/27 01:38:06;;;;;;;10.45;6.57;;;2.90;67.70;;;1.93;63.51;98601.41;5085140;28;20415;-77
2021/01/27 01:40:36;;;;;;;12.20;6.30;;;3.00;67.60;;;1.71;64.01;98591.66;5067144;28;20505;-77
2021/01/27 01:43:08;;;;;;;9.80;6.50;;;3.00;67.60;;;1.89;63.49;98603.53;5080961;28;20411;-77
2021/01/27 01:45:38;;;;;;;10.90;6.53;;;3.00;67.60;;;1.70;63.97;98584.81;5079454;28;20834;-77
2021/01/27 01:48:27;;;;;;;12.15;6.50;;;3.00;67.40;;;1.55;64.33;98589.88;5080500;28;20429;-77
2021/01/27 01:50:59;;;;;;;11.98;6.50;;;2.90;67.90;;;1.74;63.88;98580.88;5083056;28;20412;-76
2021/01/27 01:53:27;;;;;;;11.60;6.53;;;2.90;68.10;;;1.71;63.76;98583.81;5089534;28;20619;-77
2021/01/27 01:55:56;;;;;;;11.90;6.15;;;2.90;67.70;;;1.82;63.49;98584.28;5093625;28;20445;-76
2021/01/27 01:58:23;;;;;;;11.32;6.43;;;3.00;67.50;;;1.71;63.86;98576.81;5085606;28;20451;-76
2021/01/27 02:00:54;;;;;;;13.55;7.03;;;3.00;67.40;;;1.70;63.93;98569.16;5088521;28;20412;-77
2021/01/27 02:03:21;;;;;;;13.20;6.07;;;2.90;67.60;;;1.64;63.88;98565.41;5078473;28;20411;-77
2021/01/27 02:05:49;;;;;;;11.97;6.17;;;2.90;67.40;;;1.72;63.09;98575.03;5076890;28;20406;-77
2021/01/27 02:08:16;;;;;;;10.57;5.95;;;3.00;67.20;;;1.67;63.39;98562.44;5080605;28;20419;-76
2021/01/27 02:10:43;;;;;;;12.60;5.70;;;3.00;67.00;;;1.67;63.70;98565.06;5077996;28;20412;-76
2021/01/27 02:13:43;;;;;;;10.80;5.85;;;2.90;67.00;;;1.60;64.01;98561.47;5077405;28;20693;-77
2021/01/27 02:16:19;;;;;;;9.95;5.85;;;2.90;67.30;;;1.70;63.59;98558.69;5077481;28;20463;-77
2021/01/27 02:19:40;;;;;;;10.35;6.00;;;3.00;67.30;;;1.64;63.95;98551.53;5076613;28;20518;-77
2021/01/27 02:23:02;;;;;;;11.07;6.18;;;2.90;67.30;;;1.60;64.10;98542.41;5078351;28;20439;-77
2021/01/27 02:25:59;;;;;;;11.20;6.05;;;2.90;67.50;;;1.57;64.28;98540.97;4977309;28;20416;-77
2021/01/27 02:29:17;;;;;;;13.93;6.00;;;2.90;67.70;;;1.71;63.71;98542.06;5077976;28;20407;-77
2021/01/27 02:31:54;;;;;;;12.65;5.88;;;2.90;67.70;;;1.87;63.03;98540.25;5084003;28;20415;-77
2021/01/27 02:34:58;;;;;;;10.10;5.72;;;3.10;67.20;;;1.81;63.17;98542.69;5094954;28;20403;-77
2021/01/27 02:37:33;;;;;;;11.32;5.63;;;3.10;66.90;;;1.68;63.84;98537.16;5089363;28;20411;-77
2021/01/27 02:40:09;;;;;;;9.38;6.22;;;3.00;67.20;;;1.61;64.44;98544.03;5078358;28;20587;-77
2021/01/27 02:42:43;;;;;;;11.73;6.20;;;2.90;67.60;;;1.60;64.31;98565.88;5077532;28;20451;-77
2021/01/27 02:45:17;;;;;;;10.73;6.05;;;2.90;67.70;;;1.66;64.17;98552.16;5076311;28;20407;-77
2021/01/27 02:47:59;;;;;;;10.13;5.68;;;2.90;67.70;;;1.62;64.26;98543.06;5076687;28;20466;-77
2021/01/27 02:50:35;;;;;;;10.02;6.05;;;2.90;67.70;;;1.63;64.31;98532.47;5075738;28;20518;-77
2021/01/27 02:53:11;;;;;;;12.07;5.70;;;2.90;68.00;;;1.66;64.49;98529.50;5075430;28;20522;-77
2021/01/27 02:55:46;;;;;;;10.55;6.35;;;2.90;67.90;;;1.58;64.40;98539.16;5075774;28;20408;-77
2021/01/27 02:58:20;;;;;;;9.68;5.80;;;2.90;68.00;;;1.83;63.80;98538.94;5074588;28;20438;-77
2021/01/27 03:00:59;;;;;;;8.65;5.97;;;2.90;68.10;;;1.73;64.12;98543.50;5077091;28;20811;-77
2021/01/27 03:03:32;;;;;;;11.95;5.78;;;3.10;67.60;;;1.73;64.25;98538.28;5075901;28;20403;-77
2021/01/27 03:06:04;;;;;;;9.88;6.18;;;2.90;67.80;;;1.75;63.83;98533.72;5075400;28;20396;-77
2021/01/27 03:08:36;;;;;;;9.25;5.90;;;3.00;67.70;;;1.68;63.91;98530.16;5074610;28;20493;-77
2021/01/27 03:11:08;;;;;;;10.88;5.85;;;3.00;67.40;;;1.60;64.14;98530.16;5073453;28;20484;-77
2021/01/27 03:13:35;;;;;;;11.68;5.90;;;2.90;67.70;;;1.83;63.65;98528.47;5074892;28;20549;-76
2021/01/27 03:16:07;;;;;;;7.93;5.57;;;3.00;67.50;;;1.71;63.62;98524.63;5076187;28;20402;-77
2021/01/27 03:18:37;;;;;;;11.88;6.32;;;3.00;68.00;;;1.82;64.05;98526.84;5075133;28;20678;-77
2021/01/27 03:21:11;;;;;;;11.93;6.03;;;3.00;67.80;;;1.81;63.87;98529.63;5075569;28;20430;-77
2021/01/27 03:23:41;;;;;;;13.40;6.35;;;3.00;67.60;;;1.64;64.62;98528.88;5058093;28;20894;-77
2021/01/27 03:26:18;;;;;;;9.30;5.35;;;2.90;67.80;;;1.66;64.43;98531.28;5058879;28;20674;-77
2021/01/27 03:28:53;;;;;;;12.23;5.75;;;2.90;67.90;;;1.63;64.72;98526.41;5075659;28;20510;-77
2021/01/27 03:31:19;;;;;;;8.93;5.53;;;2.90;68.20;;;1.81;64.52;98534.84;5076222;28;20430;-77
2021/01/27 03:33:53;;;;;;;8.98;5.78;;;2.90;68.00;;;1.86;64.12;98527.34;5075600;28;20399;-76
2021/01/27 03:36:21;;;;;;;10.88;6.10;;;3.00;68.10;;;1.82;64.14;98519.03;5076465;28;20523;-77
2021/01/27 03:38:51;;;;;;;14.18;6.22;;;3.00;67.80;;;1.93;63.67;98510.03;5075797;28;20422;-76
2021/01/27 03:41:24;;;;;;;9.83;5.83;;;3.10;67.80;;;1.96;63.35;98520.13;5075838;28;20427;-76
2021/01/27 03:44:01;;;;;;;14.00;6.07;;;3.10;67.40;;;1.84;64.11;98524.91;5076384;28;20415;-77
2021/01/27 03:46:35;;;;;;;8.20;5.40;;;3.10;67.60;;;1.76;64.14;98521.50;5076808;28;20422;-77
2021/01/27 03:49:11;;;;;;;12.63;6.60;;;3.00;68.00;;;1.92;63.91;98518.84;5075745;28;20778;-77
2021/01/27 03:51:44;;;;;;;10.68;6.00;;;3.10;68.10;;;1.84;64.26;98521.47;5076429;28;20419;-77
2021/01/27 03:54:15;;;;;;;12.70;5.82;;;3.10;67.90;;;1.83;64.19;98510.22;5076022;28;20690;-77
2021/01/27 03:56:49;;;;;;;11.02;5.72;;;3.10;68.00;;;1.72;64.46;98507.97;5075962;28;20423;-77
2021/01/27 03:59:15;;;;;;;11.48;6.35;;;3.00;68.00;;;1.78;64.65;98498.66;5075974;28;20400;-77
2021/01/27 04:01:50;;;;;;;12.87;6.33;;;3.00;68.30;;;1.77;64.31;98497.84;5075614;28;20523;-77
2021/01/27 04:04:16;;;;;;;11.87;5.73;;;3.00;68.20;;;1.86;64.13;98506.47;5075843;28;20457;-77
2021/01/27 04:06:43;;;;;;;11.60;6.00;;;3.00;68.10;;;1.82;63.87;98502.53;5074958;28;20716;-77
2021/01/27 04:09:10;;;;;;;8.82;5.50;;;3.00;68.00;;;1.81;64.46;98506.94;5076491;28;20450;-77
2021/01/27 04:11:36;;;;;;;12.07;6.13;;;3.00;68.00;;;1.82;64.34;98500.75;5075264;28;20459;-77
2021/01/27 04:14:03;;;;;;;9.47;5.43;;;3.00;68.10;;;1.81;64.10;98503.53;5075557;28;20450;-77
2021/01/27 04:16:29;;;;;;;10.85;5.97;;;3.00;67.90;;;1.97;63.40;98490.41;5075249;28;20515;-77
2021/01/27 04:18:56;;;;;;;9.23;5.70;;;3.10;67.70;;;1.80;63.94;98489.69;5075371;28;20423;-77
2021/01/27 04:21:22;;;;;;;10.45;5.68;;;3.10;67.60;;;1.85;63.49;98491.78;5073769;28;20824;-77
2021/01/27 04:23:49;;;;;;;8.77;5.60;;;3.00;67.40;;;1.73;64.07;98474.88;5074129;28;20820;-77
2021/01/27 04:26:16;;;;;;;9.40;5.55;;;3.00;67.60;;;1.64;64.25;98470.66;5074572;28;20693;-77
2021/01/27 04:28:42;;;;;;;10.63;5.70;;;2.90;67.80;;;1.59;64.38;98459.88;5076776;28;20403;-77
2021/01/27 04:31:08;;;;;;;11.97;5.63;;;2.90;68.10;;;1.59;64.76;98450.25;5074688;28;20477;-77
2021/01/27 04:33:34;;;;;;;9.98;5.47;;;2.90;68.20;;;1.64;63.97;98439.31;5075827;28;20677;-77
2021/01/27 04:36:01;;;;;;;10.32;5.55;;;2.90;67.90;;;1.62;64.44;98438.69;5074414;28;20577;-77
2021/01/27 04:38:27;;;;;;;11.15;5.28;;;2.90;67.90;;;1.61;64.33;98431.81;5076283;28;20411;-76
2021/01/27 04:40:57;;;;;;;10.88;5.57;;;2.90;68.00;;;1.60;64.51;98427.59;5075372;28;20395;-77
2021/01/27 04:43:31;;;;;;;10.73;5.53;;;2.90;68.10;;;1.64;64.43;98408.81;5075720;28;20880;-77
2021/01/27 04:46:05;;;;;;;7.93;5.13;;;2.90;68.00;;;1.62;64.30;98399.53;5075098;28;20412;-77
2021/01/27 04:48:42;;;;;;;8.98;5.43;;;2.90;68.00;;;1.65;64.17;98402.63;5077028;28;20411;-78
2021/01/27 04:51:14;;;;;;;11.95;5.15;;;2.90;67.80;;;1.68;63.91;98417.13;5076594;28;20406;-76
2021/01/27 04:53:57;;;;;;;10.48;5.47;;;2.90;67.70;;;1.65;63.89;98417.47;5085205;28;20430;-76
2021/01/27 04:57:17;;;;;;;9.50;5.28;;;2.90;67.50;;;1.66;64.01;98416.47;5088257;28;20434;-76
2021/01/27 05:00:17;;;;;;;7.63;4.57;;;2.90;67.50;;;1.67;63.85;98402.44;5076945;28;20823;-76
2021/01/27 05:03:38;;;;;;;6.22;4.70;;;2.90;67.50;;;1.95;62.05;98409.63;5088206;28;20495;-75
2021/01/27 05:06:11;;;;;;;7.57;4.70;;;3.00;66.30;;;1.80;62.33;98416.59;5091685;28;20461;-76
2021/01/27 05:08:46;;;;;;;17.55;5.25;;;3.10;65.70;;;1.91;61.62;98407.56;5086304;28;20457;-77
2021/01/27 05:11:16;;;;;;;9.25;6.32;;;3.10;65.40;;;1.82;62.21;98408.56;5075972;28;20403;-76
2021/01/27 05:13:48;;;;;;;6.82;4.78;;;3.10;65.90;;;1.72;62.85;98402.75;5075425;28;20781;-76
2021/01/27 05:16:19;;;;;;;7.77;4.23;;;3.00;66.10;;;1.67;62.50;98392.00;5075180;28;20494;-76
2021/01/27 05:18:47;;;;;;;8.13;4.80;;;3.00;66.20;;;1.64;62.85;98379.31;5075194;28;20415;-77
2021/01/27 05:21:23;;;;;;;7.00;4.27;;;2.90;66.20;;;1.70;62.39;98363.78;5074054;28;20455;-77
2021/01/27 05:23:50;;;;;;;9.77;4.40;;;3.00;66.10;;;1.70;62.45;98368.19;5074820;28;20416;-78
2021/01/27 05:26:19;;;;;;;7.30;4.22;;;3.00;66.30;;;1.73;62.49;98365.25;5075468;28;20820;-77
2021/01/27 05:28:56;;;;;;;5.95;3.85;;;3.00;66.20;;;1.79;62.59;98359.34;5059342;28;20701;-76
2021/01/27 05:31:22;;;;;;;6.70;4.20;;;2.90;66.20;;;1.70;62.67;98365.56;5077526;28;20491;-77
2021/01/27 05:33:50;;;;;;;8.88;4.80;;;3.00;66.10;;;1.70;62.45;98363.78;5075600;28;20693;-79
2021/01/27 05:36:23;;;;;;;6.53;4.20;;;3.00;66.20;;;1.71;62.08;98354.97;5080436;28;21435;-77
2021/01/27 05:38:50;;;;;;;9.10;4.25;;;3.00;65.90;;;1.69;62.08;98356.13;5079252;28;20413;-77
2021/01/27 05:41:27;;;;;;;8.32;4.25;;;3.00;65.70;;;1.67;61.69;98355.47;5079124;28;20418;-77
2021/01/27 05:44:09;;;;;;;6.65;4.40;;;2.90;65.70;;;1.60;62.59;98351.91;5079378;28;20419;-77
2021/01/27 05:46:37;;;;;;;6.22;4.10;;;2.90;65.90;;;1.67;62.26;98351.06;5078049;28;20822;-77
2021/01/27 05:49:10;;;;;;;9.75;4.10;;;2.90;65.90;;;1.75;62.05;98345.78;5077841;28;20546;-77
2021/01/27 05:51:38;;;;;;;9.20;4.47;;;3.00;65.70;;;1.72;61.87;98342.72;5078440;28;20408;-76
2021/01/27 05:54:22;;;;;;;10.15;4.30;;;3.00;65.60;;;1.75;61.75;98337.97;5077992;28;20514;-78
2021/01/27 05:56:48;;;;;;;9.25;4.30;;;3.00;65.40;;;1.69;61.97;98336.06;5078657;28;20423;-77
2021/01/27 05:59:23;;;;;;;8.20;3.90;;;3.00;65.40;;;1.69;62.08;98332.63;5078608;28;20404;-77
2021/01/27 06:01:50;;;;;;;5.73;3.90;;;2.90;65.40;;;1.71;61.74;98344.53;5077457;28;20841;-76
2021/01/27 06:04:24;;;;;;;7.75;4.40;;;3.00;65.50;;;1.73;61.91;98349.59;5079345;28;20825;-75
2021/01/27 06:07:08;;;;;;;9.40;4.30;;;3.00;65.40;;;1.75;61.59;98347.59;5077387;28;20651;-78
2021/01/27 06:09:40;;;;;;;15.87;4.77;;;3.00;65.40;;;1.77;61.71;98356.06;5060861;28;20506;-78
2021/01/27 06:12:24;;;;;;;9.13;3.95;;;3.00;65.30;;;1.75;61.63;98337.97;5078221;28;20423;-77
2021/01/27 06:15:13;;;;;;;8.75;4.20;;;3.10;65.30;;;1.76;61.59;98334.38;5077761;28;20411;-77
2021/01/27 06:17:45;;;;;;;12.20;4.35;;;3.00;65.10;;;1.77;61.44;98327.38;5077070;28;20426;-77
2021/01/27 06:20:29;;;;;;;9.32;4.30;;;3.00;65.10;;;1.72;61.73;98330.50;5077837;28;20499;-76
2021/01/27 06:23:45;;;;;;;8.70;4.55;;;3.00;65.20;;;1.74;61.65;98327.69;5078372;28;20419;-76
2021/01/27 06:26:46;;;;;;;11.55;4.10;;;3.00;65.30;;;1.78;61.57;98329.00;5077648;28;20407;-77
2021/01/27 06:29:38;;;;;;;8.68;3.97;;;3.00;65.10;;;1.83;60.68;98321.44;5077408;28;20709;-77
2021/01/27 06:32:32;;;;;;;7.53;3.88;;;3.00;64.60;;;1.81;61.03;98326.03;5076580;28;20410;-76
2021/01/27 06:35:12;;;;;;;14.15;4.88;;;3.00;64.50;;;1.82;61.15;98325.84;5077674;28;20498;-77
2021/01/27 06:38:10;;;;;;;15.70;4.25;;;3.10;64.60;;;1.92;60.40;98328.25;5077622;28;20495;-77
2021/01/27 06:41:04;;;;;;;10.70;4.22;;;3.10;64.20;;;1.84;60.81;98329.13;5085584;28;20403;-76
2021/01/27 06:44:06;;;;;;;11.52;4.68;;;3.10;64.10;;;1.94;60.11;98328.91;5082835;28;20403;-76
2021/01/27 06:47:02;;;;;;;11.93;4.10;;;3.10;64.70;;;1.79;60.91;98336.66;5062974;28;20614;-76
2021/01/27 06:50:04;;;;;;;11.85;5.10;;;3.10;64.00;;;1.79;60.77;98338.44;5077504;28;20415;-78
2021/01/27 06:53:33;;;;;;;11.65;4.30;;;3.10;64.20;;;1.91;60.47;98335.28;5073152;28;20476;-76
2021/01/27 06:57:03;;;;;;;8.13;4.30;;;3.00;64.20;;;1.81;60.87;98337.28;5075449;28;20400;-76
2021/01/27 07:00:20;;;;;;;11.05;4.35;;;3.10;64.30;;;1.80;60.89;98335.69;5045216;28;20747;-77
2021/01/27 07:03:48;;;;;;;13.27;4.60;;;3.00;64.40;;;1.85;60.57;98335.16;5058976;28;20424;-76
2021/01/27 07:06:50;;;;;;;9.65;3.97;;;3.10;64.30;;;1.92;60.24;98330.84;5057157;28;20415;-76
2021/01/27 07:09:59;;;;;;;11.80;4.18;;;3.20;64.20;;;1.88;61.20;98340.03;5075114;28;20677;-76
2021/01/27 07:12:30;;;;;;;21.65;4.60;;;3.10;64.40;;;1.88;61.08;98338.22;5056193;28;20431;-77
2021/01/27 07:15:28;;;;;;;19.83;5.27;;;3.10;64.40;;;2.03;60.64;98348.72;5074032;28;20600;-77
2021/01/27 07:18:43;;;;;;;38.28;5.18;;;3.20;64.10;;;1.98;60.38;98351.06;5075434;28;20419;-77
2021/01/27 07:21:16;;;;;;;14.60;4.10;;;3.20;63.80;;;2.19;59.84;98350.41;5039821;28;20429;-77
2021/01/27 07:23:54;;;;;;;18.80;4.20;;;3.30;63.60;;;2.17;59.41;98347.19;5090884;28;20495;-76
2021/01/27 07:26:25;;;;;;;7.05;4.28;;;3.40;63.20;;;2.10;59.56;98351.47;5092006;28;20436;-78
2021/01/27 07:29:00;;;;;;;11.25;4.45;;;3.30;63.30;;;2.17;59.85;98362.84;5069632;28;20790;-77
2021/01/27 07:31:31;;;;;;;14.57;4.10;;;3.30;63.60;;;2.08;60.10;98371.72;5077643;28;20411;-77
2021/01/27 07:34:05;;;;;;;11.77;4.50;;;3.30;63.50;;;2.17;59.85;98368.09;5087122;28;20653;-77
2021/01/27 07:36:51;;;;;;;25.67;4.90;;;3.40;63.50;;;2.29;59.80;98364.88;5099567;28;20409;-76
2021/01/27 07:39:26;;;;;;;8.65;3.83;;;3.40;63.80;;;2.15;59.83;98376.09;5101199;28;20699;-77
2021/01/27 07:42:07;;;;;;;7.03;4.25;;;3.40;63.50;;;2.03;60.79;98376.66;5100557;28;20524;-77
2021/01/27 07:44:35;;;;;;;8.48;3.67;;;3.30;64.20;;;2.01;61.32;98389.06;5100057;28;20496;-76
2021/01/27 07:47:11;;;;;;;6.53;3.85;;;3.30;64.90;;;1.92;62.35;98383.91;5099719;28;20406;-76
2021/01/27 07:49:45;;;;;;;8.05;3.83;;;3.20;65.50;;;2.04;62.61;98373.03;5099290;28;20472;-76
2021/01/27 07:52:24;;;;;;;6.53;3.80;;;3.20;66.30;;;2.03;63.08;98376.66;5096791;28;20402;-77
2021/01/27 07:55:05;;;;;;;7.07;4.03;;;3.20;66.80;;;1.89;64.33;98367.75;5097214;28;20893;-77
2021/01/27 07:57:43;;;;;;;9.45;4.10;;;3.10;67.70;;;1.86;64.46;98375.94;5096404;28;20550;-76
2021/01/27 08:00:15;;;;;;;6.28;3.70;;;3.10;68.00;;;2.02;64.37;98380.25;5104765;28;20406;-77
2021/01/27 08:03:19;;;;;;;7.82;4.22;;;3.20;68.60;;;1.87;65.29;98377.56;5107823;28;20417;-76
2021/01/27 08:05:47;;;;;;;25.55;14.68;;;3.10;68.90;;;1.79;65.77;98380.22;5095135;28;20414;-77
2021/01/27 08:08:17;;;;;;;7.50;4.40;;;3.00;69.30;;;1.70;66.32;98384.66;5104830;28;20557;-77
2021/01/27 08:10:45;;;;;;;10.75;3.85;;;3.00;69.70;;;1.96;66.16;98394.78;5095784;28;20402;-76
2021/01/27 08:13:36;;;;;;;7.10;3.60;;;3.10;69.90;;;1.94;66.43;98391.56;5095394;28;20398;-78
2021/01/27 08:16:26;;;;;;;11.48;4.07;;;3.20;70.00;;;1.94;67.00;98399.38;5094855;28;20397;-77
2021/01/27 08:19:23;;;;;;;7.40;3.80;;;3.20;70.50;;;1.73;67.82;98407.00;5055797;28;21017;-77
2021/01/27 08:22:03;;;;;;;6.60;4.40;;;3.00;71.50;;;1.65;68.74;98404.44;5038428;28;20432;-78
2021/01/27 08:24:57;;;;;;;10.38;4.00;;;2.90;72.30;;;1.58;68.76;98404.25;5054998;28;20414;-77
2021/01/27 08:27:45;;;;;;;9.90;4.20;;;2.90;72.30;;;1.67;68.90;98403.25;5038446;28;20711;-77
2021/01/27 08:30:29;;;;;;;13.02;4.35;;;2.90;72.70;;;1.81;68.37;98402.53;5055088;28;20791;-77
2021/01/27 08:33:40;;;;;;;5.97;4.05;;;3.00;72.40;;;1.69;69.15;98401.28;5055048;28;20413;-76
2021/01/27 08:36:13;;;;;;;5.63;3.83;;;3.00;72.90;;;1.75;68.85;98403.22;5038290;28;20672;-78
2021/01/27 08:38:44;;;;;;;8.25;4.40;;;3.00;72.90;;;1.76;69.54;98399.63;5054899;28;20492;-77
2021/01/27 08:41:37;;;;;;;7.05;4.40;;;3.00;73.40;;;1.67;70.39;98392.81;5055352;28;20824;-76
2021/01/27 08:44:06;;;;;;;7.03;4.10;;;2.90;73.80;;;1.69;69.99;98392.66;5054902;28;20408;-77
2021/01/27 08:46:41;;;;;;;6.90;4.65;;;3.00;73.80;;;1.67;70.27;98389.38;5057496;28;20405;-77
2021/01/27 08:49:10;;;;;;;6.90;3.92;;;3.00;74.00;;;1.68;70.23;98393.63;5058005;28;20409;-77
2021/01/27 08:51:49;;;;;;;11.25;4.25;;;2.90;74.00;;;1.72;70.15;98392.31;5057249;28;20414;-77
2021/01/27 08:54:47;;;;;;;7.70;4.50;;;3.00;74.10;;;1.76;70.48;98393.59;5055875;28;20406;-77
2021/01/27 08:57:23;;;;;;;4.68;3.58;;;3.00;74.10;;;1.81;70.07;98392.09;5057062;28;20441;-77
2021/01/27 09:00:00;;;;;;;4.78;3.83;;;3.00;74.00;;;1.76;70.89;98393.59;5041401;28;20421;-77
2021/01/27 09:02:49;;;;;;;5.93;3.78;;;3.00;74.10;;;1.85;70.13;98388.19;5058030;28;20479;-77
2021/01/27 09:05:36;;;;;;;7.22;3.95;;;3.10;74.30;;;1.77;70.68;98385.59;5055925;28;20413;-77
2021/01/27 09:08:24;;;;;;;8.90;5.10;;;3.00;74.50;;;1.74;70.62;98383.31;5055993;28;20425;-76
2021/01/27 09:10:56;;;;;;;9.07;5.13;;;3.00;74.30;;;1.74;71.00;98374.66;5045604;28;20417;-77
2021/01/27 09:13:27;;;;;;;6.80;3.90;;;3.00;74.70;;;1.72;70.89;98387.91;5060613;28;20792;-76
2021/01/27 09:15:58;;;;;;;6.53;3.67;;;3.00;74.60;;;1.66;70.98;98391.19;5060910;28;20505;-77
2021/01/27 09:18:24;;;;;;;4.60;3.80;;;3.00;74.50;;;1.76;70.77;98381.34;5065707;28;20447;-75
2021/01/27 09:20:51;;;;;;;5.53;3.65;;;3.00;74.80;;;1.72;70.89;98382.69;5070040;28;20677;-77
2021/01/27 09:23:20;;;;;;;9.07;4.75;;;3.00;74.90;;;1.78;71.26;98389.84;5064231;28;20429;-77
2021/01/27 09:25:49;;;;;;;8.13;3.97;;;3.00;75.00;;;1.86;70.87;98389.00;5078621;28;20423;-77
2021/01/27 09:28:23;;;;;;;5.90;3.72;;;3.00;74.80;;;1.83;70.49;98389.31;5088997;28;20485;-75
2021/01/27 09:30:49;;;;;;;7.70;4.03;;;3.00;74.60;;;1.80;70.25;98381.84;5091493;28;20407;-76
2021/01/27 09:33:26;;;;;;;9.70;4.70;;;3.00;74.20;;;1.75;71.00;98379.72;5089436;28;20419;-77
2021/01/27 09:36:07;;;;;;;9.10;4.90;;;3.00;74.60;;;1.72;70.67;98377.47;5080698;28;20403;-77
2021/01/27 09:38:33;;;;;;;10.82;4.30;;;2.90;74.60;;;1.71;70.87;98370.63;5076921;28;20424;-76
2021/01/27 09:41:05;;;;;;;9.98;5.15;;;2.90;74.80;;;1.66;71.30;98367.69;5078905;28;20404;-76
2021/01/27 09:43:37;;;;;;;14.10;5.22;;;2.90;74.90;;;1.65;71.61;98376.53;5079116;28;20789;-76
2021/01/27 09:46:27;;;;;;;11.48;5.47;;;2.90;75.50;;;1.59;71.74;98365.94;5077255;28;20413;-75
2021/01/27 09:48:57;;;;;;;11.27;5.05;;;2.80;75.40;;;1.70;70.92;98371.59;5077758;28;20503;-77
2021/01/27 09:51:25;;;;;;;8.98;4.13;;;2.90;75.40;;;1.70;70.85;98358.56;5077954;28;20720;-76
2021/01/27 09:53:56;;;;;;;9.95;5.38;;;2.90;75.10;;;1.55;71.89;98357.66;5077214;28;20404;-76
2021/01/27 09:56:22;;;;;;;10.00;4.70;;;2.90;75.50;;;1.56;72.07;98364.50;5075375;28;20514;-76
2021/01/27 09:58:50;;;;;;;15.33;4.50;;;2.80;75.90;;;1.54;72.37;98353.41;5077263;28;20739;-77
2021/01/27 10:01:20;;;;;;;8.13;4.17;;;2.80;76.10;;;1.64;70.52;98354.03;5079090;28;20492;-76
2021/01/27 10:03:48;;;;;;;8.10;4.00;;;2.80;75.20;;;1.54;71.31;98354.22;5079487;28;20408;-77
2021/01/27 10:06:36;;;;;;;7.85;3.95;;;2.80;75.10;;;1.53;71.62;98349.16;5077557;28;20468;-76
2021/01/27 10:09:13;;;;;;;5.40;3.75;;;2.80;75.40;;;1.49;71.52;98340.06;5078723;28;20414;-76
2021/01/27 10:11:40;;;;;;;7.82;4.88;;;2.80;75.50;;;1.56;71.56;98335.81;5078638;28;20480;-77
2021/01/27 10:14:10;;;;;;;8.27;4.18;;;2.80;75.80;;;1.47;72.24;98324.59;5076833;28;20403;-76
2021/01/27 10:16:50;;;;;;;9.20;4.18;;;2.80;76.00;;;1.49;72.09;98312.19;5075449;28;20844;-75
2021/01/27 10:19:24;;;;;;;10.13;4.47;;;2.80;75.90;;;1.59;72.24;98318.97;5075664;28;20432;-76
2021/01/27 10:21:55;;;;;;;8.77;4.33;;;2.80;76.20;;;1.62;71.73;98310.81;5076353;28;20422;-76
2021/01/27 10:24:46;;;;;;;7.65;3.95;;;2.90;75.90;;;1.65;72.00;98308.69;5077602;28;20412;-77
2021/01/27 10:27:22;;;;;;;8.57;4.00;;;2.90;75.70;;;1.67;71.11;98305.88;5076870;28;20411;-76
2021/01/27 10:29:49;;;;;;;10.52;4.30;;;2.90;75.20;;;1.77;70.67;98312.50;5076103;28;20408;-77
2021/01/27 10:32:40;;;;;;;6.30;3.90;;;2.90;74.70;;;1.72;70.65;98308.81;5077378;28;20410;-77
2021/01/27 10:35:33;;;;;;;6.82;3.75;;;3.00;74.70;;;1.87;70.66;98301.88;5073856;28;20801;-76
2021/01/27 10:38:22;;;;;;;6.77;3.97;;;3.10;74.80;;;1.99;69.40;98297.03;5030199;28;20718;-76
2021/01/27 10:41:11;;;;;;;11.25;3.72;;;3.20;73.60;;;2.01;69.54;98303.72;5077383;28;20823;-76
2021/01/27 10:43:37;;;;;;;6.63;3.50;;;3.20;73.80;;;2.02;69.74;98296.69;5076650;28;20482;-76
2021/01/27 10:46:27;;;;;;;6.43;3.70;;;3.20;74.50;;;2.04;69.46;98298.13;5078554;28;20749;-77
2021/01/27 10:48:53;;;;;;;6.65;3.72;;;3.30;73.80;;;2.14;69.19;98293.50;5061000;28;20418;-77
2021/01/27 10:51:21;;;;;;;8.82;4.43;;;3.30;73.70;;;2.17;69.11;98294.97;5076900;28;20674;-77
2021/01/27 10:53:48;;;;;;;7.13;3.95;;;3.30;73.40;;;2.16;68.72;98295.94;5076889;28;20415;-77
2021/01/27 10:56:17;;;;;;;5.68;3.80;;;3.40;72.90;;;2.29;69.01;98290.94;5076160;28;20411;-77
2021/01/27 10:58:43;;;;;;;7.40;3.72;;;3.40;73.20;;;2.18;68.85;98279.09;5076334;28;20511;-78
2021/01/27 11:01:09;;;;;;;5.55;3.42;;;3.40;72.80;;;2.21;69.15;98289.19;5077577;28;20462;-77
2021/01/27 11:03:35;;;;;;;8.77;5.72;;;3.40;73.50;;;2.14;68.62;98290.88;5078522;28;20420;-77
2021/01/27 11:06:02;;;;;;;11.80;4.07;;;3.30;73.00;;;2.03;69.41;98287.88;5076447;28;20481;-77
2021/01/27 11:08:32;;;;;;;8.05;3.45;;;3.30;73.40;;;2.06;69.24;98297.97;5078503;28;20809;-77